sensor_id;sensor_type;location;lat;lon;timestamp;P1;durP1;ratioP1;P2;durP2;ratioP2
46815;SDS011;32787;53.316;8.670;2023-04-03T00:01:26;7.32;;;1.90;;
46815;SDS011;32787;53.316;8.670;2023-04-03T00:03:52;5.95;;;1.60;;
46815;SDS011;32787;53.316;8.670;2023-04-03T00:06:18;6.50;;;1.80;;
46815;SDS011;32787;53.316;8.670;2023-04-03T00:08:44;7.50;;;1.88;;
46815;SDS011;32787;53.316;8.670;2023-04-03T00:11:09;6.28;;;1.65;;
46815;SDS011;32787;53.316;8.670;2023-04-03T00:13:35;8.05;;;2.08;;
46815;SDS011;32787;53.316;8.670;2023-04-03T00:16:01;7.03;;;1.77;;
46815;SDS011;32787;53.316;8.670;2023-04-03T00:18:28;10.07;;;1.83;;
46815;SDS011;32787;53.316;8.670;2023-04-03T00:20:54;13.90;;;2.03;;
46815;SDS011;32787;53.316;8.670;2023-04-03T00:23:20;9.35;;;2.63;;
46815;SDS011;32787;53.316;8.670;2023-04-03T00:25:46;7.80;;;1.90;;
46815;SDS011;32787;53.316;8.670;2023-04-03T00:28:12;7.30;;;1.70;;
46815;SDS011;32787;53.316;8.670;2023-04-03T00:30:37;6.97;;;1.73;;
46815;SDS011;32787;53.316;8.670;2023-04-03T00:33:03;9.27;;;2.00;;
46815;SDS011;32787;53.316;8.670;2023-04-03T00:35:29;8.48;;;1.90;;
46815;SDS011;32787;53.316;8.670;2023-04-03T00:37:55;8.68;;;1.88;;
46815;SDS011;32787;53.316;8.670;2023-04-03T00:40:22;9.27;;;2.17;;
46815;SDS011;32787;53.316;8.670;2023-04-03T00:42:57;8.27;;;1.90;;
46815;SDS011;32787;53.316;8.670;2023-04-03T00:45:37;7.03;;;2.20;;
46815;SDS011;32787;53.316;8.670;2023-04-03T00:48:04;10.93;;;2.03;;
46815;SDS011;32787;53.316;8.670;2023-04-03T00:50:32;12.23;;;2.05;;
46815;SDS011;32787;53.316;8.670;2023-04-03T00:53:00;6.78;;;1.98;;
46815;SDS011;32787;53.316;8.670;2023-04-03T00:55:26;8.02;;;2.33;;
46815;SDS011;32787;53.316;8.670;2023-04-03T00:57:53;6.88;;;2.10;;
46815;SDS011;32787;53.316;8.670;2023-04-03T01:00:20;9.50;;;1.90;;
46815;SDS011;32787;53.316;8.670;2023-04-03T01:02:48;9.45;;;2.05;;
46815;SDS011;32787;53.316;8.670;2023-04-03T01:05:14;9.05;;;2.08;;
46815;SDS011;32787;53.316;8.670;2023-04-03T01:07:42;13.00;;;2.40;;
46815;SDS011;32787;53.316;8.670;2023-04-03T01:10:09;6.68;;;1.90;;
46815;SDS011;32787;53.316;8.670;2023-04-03T01:12:39;9.55;;;2.40;;
46815;SDS011;32787;53.316;8.670;2023-04-03T01:15:08;8.88;;;2.53;;
46815;SDS011;32787;53.316;8.670;2023-04-03T01:25:23;9.95;;;2.00;;
46815;SDS011;32787;53.316;8.670;2023-04-03T01:27:49;5.50;;;1.83;;
46815;SDS011;32787;53.316;8.670;2023-04-03T01:30:17;6.85;;;2.40;;
46815;SDS011;32787;53.316;8.670;2023-04-03T01:32:45;13.05;;;2.40;;
46815;SDS011;32787;53.316;8.670;2023-04-03T01:35:11;8.80;;;1.90;;
46815;SDS011;32787;53.316;8.670;2023-04-03T01:37:36;14.45;;;2.70;;
46815;SDS011;32787;53.316;8.670;2023-04-03T01:40:02;6.50;;;2.60;;
46815;SDS011;32787;53.316;8.670;2023-04-03T01:42:29;7.95;;;2.65;;
46815;SDS011;32787;53.316;8.670;2023-04-03T01:44:54;11.57;;;2.45;;
46815;SDS011;32787;53.316;8.670;2023-04-03T01:47:20;6.90;;;2.35;;
46815;SDS011;32787;53.316;8.670;2023-04-03T01:49:46;6.47;;;2.10;;
46815;SDS011;32787;53.316;8.670;2023-04-03T01:52:12;8.65;;;2.53;;
46815;SDS011;32787;53.316;8.670;2023-04-03T01:54:38;15.05;;;2.33;;
46815;SDS011;32787;53.316;8.670;2023-04-03T01:57:03;8.70;;;2.55;;
46815;SDS011;32787;53.316;8.670;2023-04-03T01:59:29;8.10;;;2.08;;
46815;SDS011;32787;53.316;8.670;2023-04-03T02:01:55;10.38;;;2.30;;
46815;SDS011;32787;53.316;8.670;2023-04-03T02:04:21;10.82;;;2.67;;
46815;SDS011;32787;53.316;8.670;2023-04-03T02:06:47;8.07;;;2.22;;
46815;SDS011;32787;53.316;8.670;2023-04-03T02:09:13;7.53;;;2.35;;
46815;SDS011;32787;53.316;8.670;2023-04-03T02:11:38;6.05;;;2.13;;
46815;SDS011;32787;53.316;8.670;2023-04-03T02:14:04;9.30;;;2.22;;
46815;SDS011;32787;53.316;8.670;2023-04-03T02:16:30;14.02;;;2.42;;
46815;SDS011;32787;53.316;8.670;2023-04-03T02:18:56;7.75;;;2.40;;
46815;SDS011;32787;53.316;8.670;2023-04-03T02:21:21;8.57;;;2.53;;
46815;SDS011;32787;53.316;8.670;2023-04-03T02:23:47;14.25;;;2.90;;
46815;SDS011;32787;53.316;8.670;2023-04-03T02:26:14;10.07;;;2.28;;
46815;SDS011;32787;53.316;8.670;2023-04-03T02:28:40;7.38;;;2.10;;
46815;SDS011;32787;53.316;8.670;2023-04-03T02:31:06;9.57;;;2.35;;
46815;SDS011;32787;53.316;8.670;2023-04-03T02:33:32;10.07;;;2.58;;
46815;SDS011;32787;53.316;8.670;2023-04-03T02:35:59;10.30;;;2.22;;
46815;SDS011;32787;53.316;8.670;2023-04-03T02:38:25;9.55;;;2.30;;
46815;SDS011;32787;53.316;8.670;2023-04-03T02:40:51;8.52;;;2.22;;
46815;SDS011;32787;53.316;8.670;2023-04-03T02:43:17;7.97;;;2.80;;
46815;SDS011;32787;53.316;8.670;2023-04-03T02:45:43;11.63;;;3.13;;
46815;SDS011;32787;53.316;8.670;2023-04-03T02:48:08;14.35;;;2.95;;
46815;SDS011;32787;53.316;8.670;2023-04-03T02:50:34;6.63;;;2.42;;
46815;SDS011;32787;53.316;8.670;2023-04-03T02:53:00;9.38;;;2.50;;
46815;SDS011;32787;53.316;8.670;2023-04-03T02:55:26;8.82;;;2.72;;
46815;SDS011;32787;53.316;8.670;2023-04-03T02:57:51;9.55;;;3.35;;
46815;SDS011;32787;53.316;8.670;2023-04-03T03:00:17;11.55;;;2.70;;
46815;SDS011;32787;53.316;8.670;2023-04-03T03:02:43;6.53;;;2.35;;
46815;SDS011;32787;53.316;8.670;2023-04-03T03:05:08;8.85;;;2.47;;
46815;SDS011;32787;53.316;8.670;2023-04-03T03:07:34;10.50;;;2.70;;
46815;SDS011;32787;53.316;8.670;2023-04-03T03:10:00;7.70;;;2.28;;
46815;SDS011;32787;53.316;8.670;2023-04-03T03:12:25;12.88;;;3.13;;
46815;SDS011;32787;53.316;8.670;2023-04-03T03:14:51;9.27;;;2.50;;
46815;SDS011;32787;53.316;8.670;2023-04-03T03:17:16;9.65;;;2.60;;
46815;SDS011;32787;53.316;8.670;2023-04-03T03:19:43;8.48;;;2.78;;
46815;SDS011;32787;53.316;8.670;2023-04-03T03:22:08;13.00;;;2.67;;
46815;SDS011;32787;53.316;8.670;2023-04-03T03:24:34;11.73;;;2.70;;
46815;SDS011;32787;53.316;8.670;2023-04-03T03:27:00;7.95;;;2.85;;
46815;SDS011;32787;53.316;8.670;2023-04-03T03:29:25;8.30;;;2.72;;
46815;SDS011;32787;53.316;8.670;2023-04-03T03:31:51;7.57;;;2.30;;
46815;SDS011;32787;53.316;8.670;2023-04-03T03:34:17;7.57;;;2.28;;
46815;SDS011;32787;53.316;8.670;2023-04-03T03:36:42;10.25;;;2.60;;
46815;SDS011;32787;53.316;8.670;2023-04-03T03:39:08;8.07;;;2.88;;
46815;SDS011;32787;53.316;8.670;2023-04-03T03:41:34;6.28;;;2.13;;
46815;SDS011;32787;53.316;8.670;2023-04-03T03:44:00;14.65;;;2.75;;
46815;SDS011;32787;53.316;8.670;2023-04-03T03:46:26;12.18;;;2.88;;
46815;SDS011;32787;53.316;8.670;2023-04-03T03:48:51;10.07;;;2.75;;
46815;SDS011;32787;53.316;8.670;2023-04-03T03:51:17;11.75;;;3.03;;
46815;SDS011;32787;53.316;8.670;2023-04-03T03:53:43;10.13;;;3.25;;
46815;SDS011;32787;53.316;8.670;2023-04-03T03:56:08;9.05;;;2.50;;
46815;SDS011;32787;53.316;8.670;2023-04-03T03:58:34;9.10;;;1.98;;
46815;SDS011;32787;53.316;8.670;2023-04-03T04:01:01;9.93;;;2.72;;
46815;SDS011;32787;53.316;8.670;2023-04-03T04:05:56;8.43;;;2.53;;
46815;SDS011;32787;53.316;8.670;2023-04-03T04:08:21;8.70;;;2.95;;
46815;SDS011;32787;53.316;8.670;2023-04-03T04:10:47;8.45;;;2.42;;
46815;SDS011;32787;53.316;8.670;2023-04-03T04:13:13;17.70;;;2.55;;
46815;SDS011;32787;53.316;8.670;2023-04-03T04:15:38;10.25;;;2.40;;
46815;SDS011;32787;53.316;8.670;2023-04-03T04:18:05;9.68;;;2.13;;
46815;SDS011;32787;53.316;8.670;2023-04-03T04:20:30;8.40;;;2.30;;
46815;SDS011;32787;53.316;8.670;2023-04-03T04:22:56;9.65;;;2.30;;
46815;SDS011;32787;53.316;8.670;2023-04-03T04:25:22;9.45;;;2.30;;
46815;SDS011;32787;53.316;8.670;2023-04-03T04:27:47;9.00;;;2.67;;
46815;SDS011;32787;53.316;8.670;2023-04-03T04:30:14;8.48;;;2.75;;
46815;SDS011;32787;53.316;8.670;2023-04-03T04:32:40;10.25;;;2.42;;
46815;SDS011;32787;53.316;8.670;2023-04-03T04:35:05;12.68;;;3.25;;
46815;SDS011;32787;53.316;8.670;2023-04-03T04:37:31;13.65;;;3.28;;
46815;SDS011;32787;53.316;8.670;2023-04-03T04:39:57;11.35;;;3.05;;
46815;SDS011;32787;53.316;8.670;2023-04-03T04:42:23;13.38;;;3.45;;
46815;SDS011;32787;53.316;8.670;2023-04-03T04:44:48;14.75;;;3.80;;
46815;SDS011;32787;53.316;8.670;2023-04-03T04:47:15;9.45;;;3.45;;
46815;SDS011;32787;53.316;8.670;2023-04-03T04:49:40;13.38;;;3.38;;
46815;SDS011;32787;53.316;8.670;2023-04-03T04:52:06;10.00;;;3.70;;
46815;SDS011;32787;53.316;8.670;2023-04-03T04:54:32;15.23;;;4.38;;
46815;SDS011;32787;53.316;8.670;2023-04-03T04:56:57;11.07;;;3.60;;
46815;SDS011;32787;53.316;8.670;2023-04-03T04:59:23;9.45;;;3.40;;
46815;SDS011;32787;53.316;8.670;2023-04-03T05:01:49;10.23;;;3.47;;
46815;SDS011;32787;53.316;8.670;2023-04-03T05:04:15;16.27;;;4.05;;
46815;SDS011;32787;53.316;8.670;2023-04-03T05:06:41;13.02;;;4.72;;
46815;SDS011;32787;53.316;8.670;2023-04-03T05:09:06;12.10;;;4.55;;
46815;SDS011;32787;53.316;8.670;2023-04-03T05:11:32;13.88;;;3.95;;
46815;SDS011;32787;53.316;8.670;2023-04-03T05:13:58;18.45;;;6.00;;
46815;SDS011;32787;53.316;8.670;2023-04-03T05:16:23;9.13;;;3.70;;
46815;SDS011;32787;53.316;8.670;2023-04-03T05:18:50;10.60;;;3.85;;
46815;SDS011;32787;53.316;8.670;2023-04-03T05:21:15;11.02;;;4.32;;
46815;SDS011;32787;53.316;8.670;2023-04-03T05:23:43;10.10;;;4.10;;
46815;SDS011;32787;53.316;8.670;2023-04-03T05:26:09;10.32;;;3.45;;
46815;SDS011;32787;53.316;8.670;2023-04-03T05:28:34;13.90;;;4.55;;
46815;SDS011;32787;53.316;8.670;2023-04-03T05:31:00;14.55;;;4.45;;
46815;SDS011;32787;53.316;8.670;2023-04-03T05:33:25;10.77;;;4.18;;
46815;SDS011;32787;53.316;8.670;2023-04-03T05:35:52;14.48;;;4.93;;
46815;SDS011;32787;53.316;8.670;2023-04-03T05:38:18;12.80;;;4.63;;
46815;SDS011;32787;53.316;8.670;2023-04-03T05:40:45;18.02;;;6.00;;
46815;SDS011;32787;53.316;8.670;2023-04-03T05:43:10;14.98;;;4.22;;
46815;SDS011;32787;53.316;8.670;2023-04-03T05:45:36;12.27;;;4.15;;
46815;SDS011;32787;53.316;8.670;2023-04-03T05:48:01;9.95;;;3.92;;
46815;SDS011;32787;53.316;8.670;2023-04-03T05:50:27;13.32;;;4.97;;
46815;SDS011;32787;53.316;8.670;2023-04-03T05:52:53;17.77;;;4.25;;
46815;SDS011;32787;53.316;8.670;2023-04-03T05:57:48;11.80;;;4.13;;
46815;SDS011;32787;53.316;8.670;2023-04-03T06:00:15;17.92;;;5.15;;
46815;SDS011;32787;53.316;8.670;2023-04-03T06:02:41;11.73;;;4.07;;
46815;SDS011;32787;53.316;8.670;2023-04-03T06:05:07;11.73;;;3.35;;
46815;SDS011;32787;53.316;8.670;2023-04-03T06:07:33;11.95;;;4.20;;
46815;SDS011;32787;53.316;8.670;2023-04-03T06:10:00;9.70;;;3.88;;
46815;SDS011;32787;53.316;8.670;2023-04-03T06:12:26;12.23;;;4.10;;
46815;SDS011;32787;53.316;8.670;2023-04-03T06:14:54;9.80;;;3.83;;
46815;SDS011;32787;53.316;8.670;2023-04-03T06:17:20;12.45;;;3.60;;
46815;SDS011;32787;53.316;8.670;2023-04-03T06:19:45;11.02;;;2.63;;
46815;SDS011;32787;53.316;8.670;2023-04-03T06:22:11;10.95;;;3.60;;
46815;SDS011;32787;53.316;8.670;2023-04-03T06:24:37;13.25;;;3.70;;
46815;SDS011;32787;53.316;8.670;2023-04-03T06:27:03;10.68;;;3.30;;
46815;SDS011;32787;53.316;8.670;2023-04-03T06:29:28;12.27;;;3.58;;
46815;SDS011;32787;53.316;8.670;2023-04-03T06:31:54;9.98;;;3.17;;
46815;SDS011;32787;53.316;8.670;2023-04-03T06:34:20;8.95;;;3.00;;
46815;SDS011;32787;53.316;8.670;2023-04-03T06:36:46;11.10;;;3.42;;
46815;SDS011;32787;53.316;8.670;2023-04-03T06:39:13;10.90;;;3.70;;
46815;SDS011;32787;53.316;8.670;2023-04-03T06:41:41;14.13;;;3.80;;
46815;SDS011;32787;53.316;8.670;2023-04-03T06:44:07;10.77;;;3.45;;
46815;SDS011;32787;53.316;8.670;2023-04-03T06:46:35;8.70;;;3.28;;
46815;SDS011;32787;53.316;8.670;2023-04-03T06:49:02;14.43;;;3.67;;
46815;SDS011;32787;53.316;8.670;2023-04-03T06:51:29;9.00;;;3.60;;
46815;SDS011;32787;53.316;8.670;2023-04-03T06:53:56;10.93;;;3.28;;
46815;SDS011;32787;53.316;8.670;2023-04-03T06:56:23;9.50;;;2.90;;
46815;SDS011;32787;53.316;8.670;2023-04-03T06:58:50;8.85;;;2.75;;
46815;SDS011;32787;53.316;8.670;2023-04-03T07:01:17;12.85;;;3.30;;
46815;SDS011;32787;53.316;8.670;2023-04-03T07:03:44;8.20;;;3.20;;
46815;SDS011;32787;53.316;8.670;2023-04-03T07:06:12;11.07;;;2.78;;
46815;SDS011;32787;53.316;8.670;2023-04-03T07:08:39;11.02;;;2.80;;
46815;SDS011;32787;53.316;8.670;2023-04-03T07:11:05;12.50;;;3.92;;
46815;SDS011;32787;53.316;8.670;2023-04-03T07:13:31;12.82;;;2.97;;
46815;SDS011;32787;53.316;8.670;2023-04-03T07:15:57;9.82;;;2.95;;
46815;SDS011;32787;53.316;8.670;2023-04-03T07:18:23;10.23;;;2.95;;
46815;SDS011;32787;53.316;8.670;2023-04-03T07:20:49;8.45;;;3.35;;
46815;SDS011;32787;53.316;8.670;2023-04-03T07:23:16;12.45;;;3.00;;
46815;SDS011;32787;53.316;8.670;2023-04-03T07:25:42;10.75;;;2.50;;
46815;SDS011;32787;53.316;8.670;2023-04-03T07:28:09;10.05;;;2.03;;
46815;SDS011;32787;53.316;8.670;2023-04-03T07:30:34;9.30;;;2.05;;
46815;SDS011;32787;53.316;8.670;2023-04-03T07:33:07;6.90;;;2.10;;
46815;SDS011;32787;53.316;8.670;2023-04-03T07:35:32;7.35;;;1.70;;
46815;SDS011;32787;53.316;8.670;2023-04-03T07:37:58;4.75;;;1.10;;
46815;SDS011;32787;53.316;8.670;2023-04-03T07:40:23;7.35;;;1.60;;
46815;SDS011;32787;53.316;8.670;2023-04-03T07:42:50;7.78;;;1.52;;
46815;SDS011;32787;53.316;8.670;2023-04-03T07:45:16;5.60;;;1.52;;
46815;SDS011;32787;53.316;8.670;2023-04-03T07:47:42;5.60;;;1.17;;
46815;SDS011;32787;53.316;8.670;2023-04-03T07:50:08;7.93;;;1.33;;
46815;SDS011;32787;53.316;8.670;2023-04-03T07:52:33;6.47;;;1.30;;
46815;SDS011;32787;53.316;8.670;2023-04-03T07:54:59;6.38;;;1.23;;
46815;SDS011;32787;53.316;8.670;2023-04-03T07:57:25;5.88;;;1.17;;
46815;SDS011;32787;53.316;8.670;2023-04-03T07:59:50;4.82;;;1.10;;
46815;SDS011;32787;53.316;8.670;2023-04-03T08:02:16;4.68;;;1.00;;
46815;SDS011;32787;53.316;8.670;2023-04-03T08:04:41;5.43;;;1.20;;
46815;SDS011;32787;53.316;8.670;2023-04-03T08:07:07;3.92;;;1.08;;
46815;SDS011;32787;53.316;8.670;2023-04-03T08:09:32;3.80;;;0.90;;
46815;SDS011;32787;53.316;8.670;2023-04-03T08:11:58;5.22;;;1.05;;
46815;SDS011;32787;53.316;8.670;2023-04-03T08:14:24;7.50;;;1.67;;
46815;SDS011;32787;53.316;8.670;2023-04-03T08:16:50;3.72;;;0.80;;
46815;SDS011;32787;53.316;8.670;2023-04-03T08:19:15;3.45;;;0.90;;
46815;SDS011;32787;53.316;8.670;2023-04-03T08:21:43;3.67;;;1.05;;
46815;SDS011;32787;53.316;8.670;2023-04-03T08:24:09;5.53;;;1.42;;
46815;SDS011;32787;53.316;8.670;2023-04-03T08:26:34;6.57;;;1.42;;
46815;SDS011;32787;53.316;8.670;2023-04-03T08:29:01;4.50;;;1.20;;
46815;SDS011;32787;53.316;8.670;2023-04-03T08:31:27;5.95;;;1.27;;
46815;SDS011;32787;53.316;8.670;2023-04-03T08:33:53;9.70;;;1.40;;
46815;SDS011;32787;53.316;8.670;2023-04-03T08:36:20;5.53;;;1.20;;
46815;SDS011;32787;53.316;8.670;2023-04-03T08:38:47;5.00;;;1.08;;
46815;SDS011;32787;53.316;8.670;2023-04-03T08:41:15;4.70;;;0.82;;
46815;SDS011;32787;53.316;8.670;2023-04-03T08:49:33;3.33;;;1.00;;
46815;SDS011;32787;53.316;8.670;2023-04-03T08:52:13;4.65;;;1.02;;
46815;SDS011;32787;53.316;8.670;2023-04-03T08:54:48;3.35;;;0.82;;
46815;SDS011;32787;53.316;8.670;2023-04-03T08:57:29;3.73;;;0.93;;
46815;SDS011;32787;53.316;8.670;2023-04-03T09:00:03;3.65;;;1.10;;
46815;SDS011;32787;53.316;8.670;2023-04-03T09:05:19;6.32;;;0.90;;
46815;SDS011;32787;53.316;8.670;2023-04-03T09:08:36;4.63;;;0.95;;
46815;SDS011;32787;53.316;8.670;2023-04-03T09:10:44;5.70;;;1.20;;
46815;SDS011;32787;53.316;8.670;2023-04-03T09:13:19;6.10;;;1.23;;
46815;SDS011;32787;53.316;8.670;2023-04-03T09:15:57;6.25;;;0.82;;
46815;SDS011;32787;53.316;8.670;2023-04-03T09:18:25;5.30;;;1.38;;
46815;SDS011;32787;53.316;8.670;2023-04-03T09:21:17;4.65;;;1.10;;
46815;SDS011;32787;53.316;8.670;2023-04-03T09:23:50;4.43;;;1.23;;
46815;SDS011;32787;53.316;8.670;2023-04-03T09:26:25;5.20;;;1.10;;
46815;SDS011;32787;53.316;8.670;2023-04-03T09:29:08;3.45;;;0.85;;
46815;SDS011;32787;53.316;8.670;2023-04-03T09:31:43;4.15;;;1.10;;
46815;SDS011;32787;53.316;8.670;2023-04-03T09:34:56;3.70;;;0.90;;
46815;SDS011;32787;53.316;8.670;2023-04-03T09:37:03;4.68;;;1.10;;
46815;SDS011;32787;53.316;8.670;2023-04-03T09:39:31;2.33;;;0.90;;
46815;SDS011;32787;53.316;8.670;2023-04-03T09:42:19;6.00;;;1.02;;
46815;SDS011;32787;53.316;8.670;2023-04-03T09:45:00;5.63;;;1.05;;
46815;SDS011;32787;53.316;8.670;2023-04-03T09:47:29;4.85;;;1.00;;
46815;SDS011;32787;53.316;8.670;2023-04-03T09:52:43;5.75;;;1.08;;
46815;SDS011;32787;53.316;8.670;2023-04-03T09:55:14;3.20;;;0.90;;
46815;SDS011;32787;53.316;8.670;2023-04-03T09:57:51;2.85;;;1.00;;
46815;SDS011;32787;53.316;8.670;2023-04-03T10:00:19;5.13;;;1.20;;
46815;SDS011;32787;53.316;8.670;2023-04-03T10:05:35;4.70;;;1.20;;
46815;SDS011;32787;53.316;8.670;2023-04-03T10:08:19;3.67;;;1.10;;
46815;SDS011;32787;53.316;8.670;2023-04-03T10:10:46;3.22;;;0.77;;
46815;SDS011;32787;53.316;8.670;2023-04-03T10:13:17;3.33;;;0.82;;
46815;SDS011;32787;53.316;8.670;2023-04-03T10:16:07;4.80;;;1.27;;
46815;SDS011;32787;53.316;8.670;2023-04-03T10:18:55;5.68;;;0.90;;
46815;SDS011;32787;53.316;8.670;2023-04-03T10:24:21;3.50;;;0.80;;
46815;SDS011;32787;53.316;8.670;2023-04-03T10:32:57;2.35;;;0.63;;
46815;SDS011;32787;53.316;8.670;2023-04-03T10:35:47;4.70;;;0.88;;
46815;SDS011;32787;53.316;8.670;2023-04-03T10:41:08;5.35;;;0.90;;
46815;SDS011;32787;53.316;8.670;2023-04-03T10:43:59;3.42;;;0.80;;
46815;SDS011;32787;53.316;8.670;2023-04-03T10:46:52;6.28;;;0.90;;
46815;SDS011;32787;53.316;8.670;2023-04-03T10:58:01;2.60;;;0.82;;
46815;SDS011;32787;53.316;8.670;2023-04-03T11:03:32;5.32;;;0.93;;
46815;SDS011;32787;53.316;8.670;2023-04-03T11:06:02;2.65;;;0.70;;
46815;SDS011;32787;53.316;8.670;2023-04-03T11:11:22;4.72;;;0.90;;
46815;SDS011;32787;53.316;8.670;2023-04-03T11:13:54;4.03;;;0.80;;
46815;SDS011;32787;53.316;8.670;2023-04-03T11:16:29;7.50;;;1.58;;
46815;SDS011;32787;53.316;8.670;2023-04-03T11:24:34;6.15;;;1.15;;
46815;SDS011;32787;53.316;8.670;2023-04-03T11:27:05;4.20;;;1.00;;
46815;SDS011;32787;53.316;8.670;2023-04-03T11:29:33;3.47;;;0.90;;
46815;SDS011;32787;53.316;8.670;2023-04-03T11:32:21;2.38;;;0.98;;
46815;SDS011;32787;53.316;8.670;2023-04-03T11:34:52;4.38;;;0.90;;
46815;SDS011;32787;53.316;8.670;2023-04-03T11:37:34;2.40;;;0.70;;
46815;SDS011;32787;53.316;8.670;2023-04-03T11:40:13;5.28;;;1.17;;
46815;SDS011;32787;53.316;8.670;2023-04-03T11:45:31;3.65;;;0.90;;
46815;SDS011;32787;53.316;8.670;2023-04-03T11:48:01;8.15;;;1.20;;
46815;SDS011;32787;53.316;8.670;2023-04-03T11:51:37;8.63;;;2.20;;
46815;SDS011;32787;53.316;8.670;2023-04-03T11:53:53;3.65;;;1.00;;
46815;SDS011;32787;53.316;8.670;2023-04-03T12:01:48;3.47;;;0.85;;
46815;SDS011;32787;53.316;8.670;2023-04-03T12:04:17;4.97;;;1.00;;
46815;SDS011;32787;53.316;8.670;2023-04-03T12:09:28;3.97;;;0.90;;
46815;SDS011;32787;53.316;8.670;2023-04-03T12:14:53;4.32;;;1.00;;
46815;SDS011;32787;53.316;8.670;2023-04-03T12:17:23;3.58;;;0.80;;
46815;SDS011;32787;53.316;8.670;2023-04-03T12:19:52;3.38;;;0.85;;
46815;SDS011;32787;53.316;8.670;2023-04-03T12:22:19;2.95;;;0.95;;
46815;SDS011;32787;53.316;8.670;2023-04-03T12:24:49;2.70;;;1.00;;
46815;SDS011;32787;53.316;8.670;2023-04-03T12:46:20;4.32;;;0.85;;
46815;SDS011;32787;53.316;8.670;2023-04-03T12:48:49;3.92;;;0.93;;
46815;SDS011;32787;53.316;8.670;2023-04-03T12:51:40;4.63;;;0.90;;
46815;SDS011;32787;53.316;8.670;2023-04-03T12:54:13;3.63;;;1.00;;
46815;SDS011;32787;53.316;8.670;2023-04-03T12:56:42;3.75;;;1.00;;
46815;SDS011;32787;53.316;8.670;2023-04-03T12:59:21;4.35;;;0.95;;
46815;SDS011;32787;53.316;8.670;2023-04-03T13:01:55;3.63;;;0.95;;
46815;SDS011;32787;53.316;8.670;2023-04-03T13:04:29;4.65;;;0.90;;
46815;SDS011;32787;53.316;8.670;2023-04-03T13:06:56;3.00;;;0.80;;
46815;SDS011;32787;53.316;8.670;2023-04-03T13:11:55;2.60;;;0.73;;
46815;SDS011;32787;53.316;8.670;2023-04-03T13:16:54;3.92;;;0.90;;
46815;SDS011;32787;53.316;8.670;2023-04-03T13:19:29;3.85;;;1.00;;
46815;SDS011;32787;53.316;8.670;2023-04-03T13:22:00;4.60;;;1.10;;
46815;SDS011;32787;53.316;8.670;2023-04-03T13:24:30;4.13;;;0.98;;
46815;SDS011;32787;53.316;8.670;2023-04-03T13:26:58;6.40;;;1.20;;
46815;SDS011;32787;53.316;8.670;2023-04-03T13:29:26;5.57;;;0.80;;
46815;SDS011;32787;53.316;8.670;2023-04-03T13:31:57;4.43;;;0.77;;
46815;SDS011;32787;53.316;8.670;2023-04-03T13:34:26;2.83;;;0.85;;
46815;SDS011;32787;53.316;8.670;2023-04-03T13:41:47;4.80;;;1.05;;
46815;SDS011;32787;53.316;8.670;2023-04-03T13:44:14;3.13;;;1.05;;
46815;SDS011;32787;53.316;8.670;2023-04-03T13:46:58;4.20;;;0.70;;
46815;SDS011;32787;53.316;8.670;2023-04-03T13:49:46;5.93;;;1.15;;
46815;SDS011;32787;53.316;8.670;2023-04-03T13:52:41;3.17;;;0.85;;
46815;SDS011;32787;53.316;8.670;2023-04-03T14:05:51;6.80;;;0.82;;
46815;SDS011;32787;53.316;8.670;2023-04-03T14:08:17;4.03;;;0.93;;
46815;SDS011;32787;53.316;8.670;2023-04-03T14:10:43;4.80;;;0.80;;
46815;SDS011;32787;53.316;8.670;2023-04-03T14:13:13;4.60;;;1.20;;
46815;SDS011;32787;53.316;8.670;2023-04-03T14:15:40;4.20;;;0.93;;
46815;SDS011;32787;53.316;8.670;2023-04-03T14:18:10;3.88;;;1.00;;
46815;SDS011;32787;53.316;8.670;2023-04-03T14:20:37;4.85;;;1.02;;
46815;SDS011;32787;53.316;8.670;2023-04-03T14:23:03;4.13;;;1.20;;
46815;SDS011;32787;53.316;8.670;2023-04-03T14:25:28;4.47;;;1.10;;
46815;SDS011;32787;53.316;8.670;2023-04-03T14:27:54;5.28;;;1.00;;
46815;SDS011;32787;53.316;8.670;2023-04-03T14:30:22;5.20;;;1.10;;
46815;SDS011;32787;53.316;8.670;2023-04-03T14:32:50;2.95;;;0.80;;
46815;SDS011;32787;53.316;8.670;2023-04-03T14:35:17;4.00;;;0.90;;
46815;SDS011;32787;53.316;8.670;2023-04-03T14:37:44;6.97;;;1.10;;
46815;SDS011;32787;53.316;8.670;2023-04-03T14:40:16;6.18;;;1.02;;
46815;SDS011;32787;53.316;8.670;2023-04-03T14:42:44;4.10;;;1.00;;
46815;SDS011;32787;53.316;8.670;2023-04-03T14:45:12;4.10;;;1.20;;
46815;SDS011;32787;53.316;8.670;2023-04-03T14:47:51;4.32;;;1.02;;
46815;SDS011;32787;53.316;8.670;2023-04-03T14:50:20;3.13;;;0.90;;
46815;SDS011;32787;53.316;8.670;2023-04-03T14:55:16;4.28;;;1.00;;
46815;SDS011;32787;53.316;8.670;2023-04-03T14:57:43;5.88;;;1.33;;
46815;SDS011;32787;53.316;8.670;2023-04-03T15:00:19;7.78;;;1.33;;
46815;SDS011;32787;53.316;8.670;2023-04-03T15:02:46;6.00;;;1.30;;
46815;SDS011;32787;53.316;8.670;2023-04-03T15:05:13;5.53;;;1.30;;
46815;SDS011;32787;53.316;8.670;2023-04-03T15:07:43;3.78;;;1.10;;
46815;SDS011;32787;53.316;8.670;2023-04-03T15:10:18;4.90;;;1.00;;
46815;SDS011;32787;53.316;8.670;2023-04-03T15:12:49;7.60;;;1.50;;
46815;SDS011;32787;53.316;8.670;2023-04-03T15:15:16;6.65;;;1.33;;
46815;SDS011;32787;53.316;8.670;2023-04-03T15:17:43;4.05;;;1.05;;
46815;SDS011;32787;53.316;8.670;2023-04-03T15:20:19;4.20;;;1.10;;
46815;SDS011;32787;53.316;8.670;2023-04-03T15:22:46;5.15;;;1.00;;
46815;SDS011;32787;53.316;8.670;2023-04-03T15:25:12;6.00;;;1.40;;
46815;SDS011;32787;53.316;8.670;2023-04-03T15:27:38;5.57;;;1.40;;
46815;SDS011;32787;53.316;8.670;2023-04-03T15:30:05;5.55;;;1.17;;
46815;SDS011;32787;53.316;8.670;2023-04-03T15:32:32;3.83;;;1.30;;
46815;SDS011;32787;53.316;8.670;2023-04-03T15:34:59;5.88;;;1.27;;
46815;SDS011;32787;53.316;8.670;2023-04-03T15:37:25;3.53;;;1.00;;
46815;SDS011;32787;53.316;8.670;2023-04-03T15:39:51;4.25;;;1.27;;
46815;SDS011;32787;53.316;8.670;2023-04-03T15:42:17;6.65;;;1.30;;
46815;SDS011;32787;53.316;8.670;2023-04-03T15:44:42;5.47;;;1.30;;
46815;SDS011;32787;53.316;8.670;2023-04-03T15:47:08;5.72;;;1.27;;
46815;SDS011;32787;53.316;8.670;2023-04-03T15:49:34;3.83;;;1.08;;
46815;SDS011;32787;53.316;8.670;2023-04-03T15:52:01;5.18;;;1.45;;
46815;SDS011;32787;53.316;8.670;2023-04-03T15:54:27;8.27;;;1.40;;
46815;SDS011;32787;53.316;8.670;2023-04-03T15:56:54;5.20;;;1.13;;
46815;SDS011;32787;53.316;8.670;2023-04-03T15:59:21;4.47;;;1.42;;
46815;SDS011;32787;53.316;8.670;2023-04-03T16:01:47;4.63;;;1.70;;
46815;SDS011;32787;53.316;8.670;2023-04-03T16:04:13;5.70;;;1.60;;
46815;SDS011;32787;53.316;8.670;2023-04-03T16:06:40;5.32;;;1.35;;
46815;SDS011;32787;53.316;8.670;2023-04-03T16:09:06;5.47;;;1.70;;
46815;SDS011;32787;53.316;8.670;2023-04-03T16:11:32;6.72;;;1.65;;
46815;SDS011;32787;53.316;8.670;2023-04-03T16:14:00;5.72;;;1.73;;
46815;SDS011;32787;53.316;8.670;2023-04-03T16:16:25;5.82;;;1.25;;
46815;SDS011;32787;53.316;8.670;2023-04-03T16:18:52;5.80;;;1.45;;
46815;SDS011;32787;53.316;8.670;2023-04-03T16:21:20;4.43;;;1.25;;
46815;SDS011;32787;53.316;8.670;2023-04-03T16:23:46;4.90;;;1.33;;
46815;SDS011;32787;53.316;8.670;2023-04-03T16:26:12;5.40;;;1.40;;
46815;SDS011;32787;53.316;8.670;2023-04-03T16:28:38;5.28;;;1.13;;
46815;SDS011;32787;53.316;8.670;2023-04-03T16:31:04;8.60;;;1.60;;
46815;SDS011;32787;53.316;8.670;2023-04-03T16:33:31;4.88;;;1.38;;
46815;SDS011;32787;53.316;8.670;2023-04-03T16:35:56;7.63;;;1.45;;
46815;SDS011;32787;53.316;8.670;2023-04-03T16:38:22;5.40;;;1.45;;
46815;SDS011;32787;53.316;8.670;2023-04-03T16:40:48;5.13;;;1.60;;
46815;SDS011;32787;53.316;8.670;2023-04-03T16:43:14;7.07;;;1.70;;
46815;SDS011;32787;53.316;8.670;2023-04-03T16:45:40;6.22;;;1.20;;
46815;SDS011;32787;53.316;8.670;2023-04-03T16:48:06;5.88;;;1.40;;